Time;durP1;ratioP1;P1;durP2;ratioP2;P2;SDS_P1;SDS_P2;PMS_P1;PMS_P2;Temp;Humidity;BMP_temperature;BMP_pressure;BME280_temperature;BME280_humidity;BME280_pressure;Samples;Min_cycle;Max_cycle;Signal;HPM_P1;HPM_P2
2023/05/24 00:01:49;;;;;;;15.77;2.97;;;10.00;99.90;;;;;;4980304;28;20184;-70
2023/05/24 00:04:15;;;;;;;15.15;3.42;;;10.00;99.90;;;;;;4979644;28;20050;-70
2023/05/24 00:06:43;;;;;;;15.70;2.83;;;9.90;99.90;;;;;;4980638;28;20060;-70
2023/05/24 00:09:10;;;;;;;12.57;3.25;;;10.00;99.90;;;;;;4995098;28;20130;-70
2023/05/24 00:11:36;;;;;;;11.95;3.63;;;9.90;99.90;;;;;;4970899;28;20249;-70
2023/05/24 00:14:02;;;;;;;16.10;3.73;;;10.00;99.90;;;;;;4977171;28;20293;-69
2023/05/24 00:16:27;;;;;;;22.10;4.23;;;9.90;99.90;;;;;;4985049;28;20042;-70
2023/05/24 00:18:53;;;;;;;17.17;3.80;;;9.90;99.90;;;;;;4982066;28;20512;-70
2023/05/24 00:21:22;;;;;;;13.30;2.67;;;9.90;99.90;;;;;;4985407;28;20046;-70
2023/05/24 00:23:50;;;;;;;14.48;3.08;;;9.90;99.90;;;;;;4983753;28;20124;-70
2023/05/24 00:26:16;;;;;;;13.68;3.47;;;9.90;99.90;;;;;;4985920;28;20054;-70
2023/05/24 00:28:42;;;;;;;14.48;3.13;;;9.90;99.90;;;;;;4983096;28;20053;-70
2023/05/24 00:31:07;;;;;;;12.40;3.10;;;10.00;99.90;;;;;;4980808;28;20496;-70
2023/05/24 00:33:33;;;;;;;20.00;4.07;;;10.00;99.90;;;;;;4978412;28;20137;-70
2023/05/24 00:35:58;;;;;;;11.73;3.03;;;10.00;99.90;;;;;;4980742;28;20130;-70
2023/05/24 00:38:25;;;;;;;15.60;3.30;;;10.00;99.90;;;;;;4977972;28;20942;-70
2023/05/24 00:40:51;;;;;;;;;;;10.00;99.90;;;;;;4978726;28;20589;-70
2023/05/24 00:43:18;;;;;;;14.60;3.67;;;10.00;99.90;;;;;;4983949;28;19929;-70
2023/05/24 00:45:44;;;;;;;19.60;3.38;;;10.00;99.90;;;;;;4991626;23;20038;-67
2023/05/24 00:48:13;;;;;;;9.18;3.17;;;10.00;99.90;;;;;;4980206;28;20125;-68
2023/05/24 00:50:39;;;;;;;12.00;2.70;;;10.10;99.90;;;;;;4976378;28;20180;-68
2023/05/24 00:53:05;;;;;;;;;;;10.00;99.90;;;;;;4984111;28;20268;-67
2023/05/24 00:55:33;;;;;;;12.80;3.17;;;9.90;99.90;;;;;;4982242;28;20067;-67
2023/05/24 00:57:59;;;;;;;17.55;3.35;;;10.00;99.90;;;;;;4978535;28;20519;-68
2023/05/24 01:00:26;;;;;;;18.70;2.28;;;10.00;99.90;;;;;;4981226;28;20030;-67
2023/05/24 01:02:55;;;;;;;12.25;3.05;;;10.10;99.90;;;;;;4978582;28;20039;-68
2023/05/24 01:05:22;;;;;;;10.65;3.03;;;10.10;99.90;;;;;;4981080;28;20131;-68
2023/05/24 01:08:16;;;;;;;16.38;3.38;;;10.10;99.90;;;;;;4997616;28;20350;-67
2023/05/24 01:10:50;;;;;;;17.25;3.20;;;10.00;99.90;;;;;;4984003;28;20072;-68
2023/05/24 01:13:46;;;;;;;15.18;2.92;;;10.10;99.90;;;;;;4980222;28;20111;-67
2023/05/24 01:16:34;;;;;;;14.10;3.42;;;10.00;99.90;;;;;;4982395;28;20073;-67
2023/05/24 01:19:11;;;;;;;15.52;3.00;;;10.10;99.90;;;;;;4977300;28;20078;-67
2023/05/24 01:21:57;;;;;;;;;;;10.00;99.90;;;;;;4978190;28;20084;-67
2023/05/24 01:24:41;;;;;;;13.07;2.78;;;10.00;99.90;;;;;;4975806;28;19924;-67
2023/05/24 01:27:11;;;;;;;13.32;3.67;;;10.00;99.90;;;;;;4981910;28;20046;-68
2023/05/24 01:29:38;;;;;;;11.15;3.30;;;10.00;99.90;;;;;;4976918;28;20050;-68
2023/05/24 01:32:04;;;;;;;13.30;3.15;;;10.00;99.90;;;;;;4981107;28;20408;-68
2023/05/24 01:34:32;;;;;;;19.65;3.30;;;10.00;99.90;;;;;;4977234;28;20185;-67
2023/05/24 01:36:58;;;;;;;13.65;2.63;;;10.00;99.90;;;;;;4982169;28;20316;-73
2023/05/24 01:39:27;;;;;;;9.20;2.60;;;10.00;99.90;;;;;;5004074;28;20492;-68
2023/05/24 01:42:23;;;;;;;12.88;3.90;;;10.00;99.90;;;;;;4978773;28;20296;-69
2023/05/24 01:44:55;;;;;;;11.32;2.55;;;10.00;99.90;;;;;;4975448;28;20496;-69
2023/05/24 01:47:44;;;;;;;14.68;3.53;;;10.00;99.90;;;;;;4980784;28;20038;-69
2023/05/24 01:50:19;;;;;;;10.98;2.95;;;9.90;99.90;;;;;;4981804;28;20038;-71
2023/05/24 01:52:48;;;;;;;13.63;3.17;;;9.90;99.90;;;;;;4996515;28;20065;-67
2023/05/24 01:55:16;;;;;;;22.15;3.85;;;9.90;99.90;;;;;;4992844;28;20381;-67
2023/05/24 01:57:45;;;;;;;13.10;3.72;;;9.90;99.90;;;;;;4979896;28;20137;-69
2023/05/24 02:00:14;;;;;;;12.02;2.72;;;9.90;99.90;;;;;;4980754;28;20234;-70
2023/05/24 02:02:40;;;;;;;13.40;3.40;;;9.90;99.90;;;;;;4973724;28;20046;-67
2023/05/24 02:05:06;;;;;;;11.35;2.95;;;9.90;99.90;;;;;;4977326;28;20038;-67
2023/05/24 02:07:32;;;;;;;7.22;2.65;;;9.90;99.90;;;;;;4987943;28;20053;-68
2023/05/24 02:09:57;;;;;;;15.43;3.73;;;9.90;99.90;;;;;;4996749;28;20045;-68
2023/05/24 02:12:23;;;;;;;13.80;2.70;;;9.90;99.90;;;;;;4997587;28;20065;-67
2023/05/24 02:14:49;;;;;;;12.47;3.37;;;9.90;99.90;;;;;;4987150;28;20117;-67
2023/05/24 02:17:16;;;;;;;;;;;9.90;99.90;;;;;;4999167;28;20046;-68
2023/05/24 02:19:42;;;;;;;14.57;2.27;;;9.90;99.90;;;;;;4986395;28;20003;-67
2023/05/24 02:22:08;;;;;;;12.70;2.50;;;9.90;99.90;;;;;;4984374;28;20042;-67
2023/05/24 02:24:33;;;;;;;14.32;3.22;;;9.90;99.90;;;;;;4985764;28;20101;-67
2023/05/24 02:27:00;;;;;;;15.07;2.83;;;10.00;99.90;;;;;;4998021;28;20042;-67
2023/05/24 02:29:26;;;;;;;15.85;2.80;;;9.90;99.90;;;;;;4981437;28;20046;-67
2023/05/24 02:31:55;;;;;;;9.93;2.60;;;9.90;99.90;;;;;;5000499;28;20088;-68
2023/05/24 02:34:22;;;;;;;14.85;3.03;;;9.90;99.90;;;;;;4984783;28;20420;-67
2023/05/24 02:36:48;;;;;;;8.57;2.40;;;9.90;99.90;;;;;;4998533;28;20159;-67
2023/05/24 02:39:14;;;;;;;12.88;2.60;;;9.90;99.90;;;;;;4986448;28;20042;-67
2023/05/24 02:41:40;;;;;;;12.27;3.60;;;9.90;99.90;;;;;;4996738;28;20498;-67
2023/05/24 02:44:06;;;;;;;8.67;2.10;;;9.90;99.90;;;;;;4983855;28;20060;-67
2023/05/24 02:46:31;;;;;;;13.93;2.53;;;9.80;99.90;;;;;;4997213;28;20327;-67
2023/05/24 02:48:57;;;;;;;17.35;2.90;;;9.90;99.90;;;;;;4998572;28;20310;-67
2023/05/24 02:51:23;;;;;;;11.87;2.90;;;9.90;99.90;;;;;;4986596;28;20362;-68
2023/05/24 02:53:49;;;;;;;10.90;2.50;;;9.90;99.90;;;;;;4984965;28;20038;-68
2023/05/24 02:56:18;;;;;;;18.52;2.13;;;9.90;99.90;;;;;;4981720;28;20061;-68
2023/05/24 02:58:44;;;;;;;15.30;3.30;;;9.90;99.90;;;;;;4983948;28;20130;-68
2023/05/24 03:01:16;;;;;;;15.98;2.88;;;9.90;99.90;;;;;;4999124;28;20065;-68
2023/05/24 03:03:41;;;;;;;7.88;1.83;;;9.80;99.90;;;;;;4982278;28;20585;-68
2023/05/24 03:06:07;;;;;;;13.20;2.23;;;9.90;99.90;;;;;;4982115;28;20096;-68
2023/05/24 03:08:33;;;;;;;14.90;2.60;;;9.80;99.90;;;;;;4981165;28;20039;-68
2023/05/24 03:10:59;;;;;;;10.55;2.20;;;9.80;99.90;;;;;;4982221;28;20513;-68
2023/05/24 03:13:27;;;;;;;14.40;3.45;;;9.80;99.90;;;;;;4980247;28;20121;-68
2023/05/24 03:15:53;;;;;;;10.43;2.27;;;9.90;99.90;;;;;;4982824;28;20122;-68
2023/05/24 03:18:22;;;;;;;14.13;3.20;;;9.80;99.90;;;;;;4981180;28;20280;-68
2023/05/24 03:20:47;;;;;;;8.57;2.55;;;9.80;99.90;;;;;;4977103;28;20136;-68
2023/05/24 03:23:13;;;;;;;9.23;2.57;;;9.70;99.90;;;;;;4981181;28;20045;-67
2023/05/24 03:25:42;;;;;;;15.43;2.83;;;9.80;99.90;;;;;;4975598;28;20046;-67
2023/05/24 03:28:08;;;;;;;9.87;3.83;;;9.80;99.90;;;;;;4978734;28;20092;-68
2023/05/24 03:30:33;;;;;;;6.63;2.80;;;9.80;99.90;;;;;;4995645;28;20042;-67
2023/05/24 03:32:59;;;;;;;16.73;3.43;;;9.80;99.90;;;;;;4982440;28;20052;-67
2023/05/24 03:35:25;;;;;;;11.40;2.70;;;9.80;99.90;;;;;;4980896;28;20369;-67
2023/05/24 03:37:52;;;;;;;14.38;3.30;;;9.80;99.90;;;;;;4982173;28;20105;-68
2023/05/24 03:40:17;;;;;;;12.82;2.60;;;9.80;99.90;;;;;;4983572;28;20046;-67
2023/05/24 03:42:43;;;;;;;13.50;2.78;;;9.80;99.90;;;;;;4982128;28;20069;-67
2023/05/24 03:45:11;;;;;;;12.40;3.07;;;9.70;99.90;;;;;;4981253;28;20038;-67
2023/05/24 03:47:37;;;;;;;9.40;2.28;;;9.70;99.90;;;;;;4980248;28;20392;-67
2023/05/24 03:50:06;;;;;;;9.27;2.57;;;9.80;99.90;;;;;;4981055;28;20039;-67
2023/05/24 03:52:31;;;;;;;8.20;2.70;;;9.70;99.90;;;;;;4983164;28;20133;-67
2023/05/24 03:54:57;;;;;;;13.40;3.23;;;9.70;99.90;;;;;;4997212;28;20562;-67
2023/05/24 03:57:22;;;;;;;11.13;2.30;;;9.70;99.90;;;;;;4995879;28;20046;-67
2023/05/24 03:59:48;;;;;;;21.83;3.53;;;9.70;99.90;;;;;;4981479;28;20050;-68
2023/05/24 04:02:14;;;;;;;16.63;2.80;;;9.70;99.90;;;;;;4979545;28;20046;-67
2023/05/24 04:04:40;;;;;;;8.05;2.28;;;9.70;99.90;;;;;;4984605;28;20148;-68
2023/05/24 04:07:06;;;;;;;13.60;3.42;;;9.70;99.90;;;;;;4978632;28;20050;-67
2023/05/24 04:09:32;;;;;;;9.77;1.95;;;9.70;99.90;;;;;;4978313;28;20038;-67
2023/05/24 04:11:57;;;;;;;18.63;3.80;;;9.70;99.90;;;;;;4981085;28;20049;-71
2023/05/24 04:14:26;;;;;;;9.87;2.60;;;9.80;99.90;;;;;;4996349;28;20125;-68
2023/05/24 04:16:52;;;;;;;9.80;2.00;;;9.80;99.90;;;;;;4991863;28;20042;-70
2023/05/24 04:19:18;;;;;;;14.48;2.85;;;9.80;99.90;;;;;;4979862;28;20046;-69
2023/05/24 04:21:47;;;;;;;17.53;2.27;;;9.80;99.90;;;;;;4982827;28;20508;-69
2023/05/24 04:24:12;;;;;;;10.40;2.50;;;9.80;99.90;;;;;;4998058;28;20038;-70
2023/05/24 04:26:40;;;;;;;15.10;3.67;;;9.80;99.90;;;;;;4977392;28;20077;-68
2023/05/24 04:29:06;;;;;;;7.25;1.70;;;9.80;99.90;;;;;;4979900;28;20103;-69
2023/05/24 04:31:33;;;;;;;11.60;2.90;;;9.90;99.90;;;;;;4979315;28;20103;-70
2023/05/24 04:33:58;;;;;;;;;;;9.90;99.90;;;;;;4980421;28;20085;-69
2023/05/24 04:36:25;;;;;;;8.85;2.63;;;9.90;99.90;;;;;;4996840;28;19917;-69
2023/05/24 04:38:52;;;;;;;11.05;2.92;;;9.90;99.90;;;;;;4980396;28;20042;-68
2023/05/24 04:41:21;;;;;;;12.45;2.38;;;10.00;99.90;;;;;;4970953;28;20499;-70
2023/05/24 04:43:47;;;;;;;12.95;2.40;;;10.00;99.90;;;;;;4977560;28;20043;-69
2023/05/24 04:46:12;;;;;;;11.73;2.00;;;10.10;99.90;;;;;;4964696;28;20065;-74
2023/05/24 04:48:38;;;;;;;7.77;2.73;;;10.10;99.90;;;;;;4978987;28;20114;-72
2023/05/24 04:51:04;;;;;;;11.33;2.63;;;10.10;99.90;;;;;;4976673;28;20289;-76
2023/05/24 04:53:29;;;;;;;9.67;2.03;;;10.20;99.90;;;;;;4981340;28;20471;-75
2023/05/24 04:55:55;;;;;;;8.13;2.20;;;10.10;99.90;;;;;;4982198;28;20157;-73
2023/05/24 04:58:20;;;;;;;15.07;2.60;;;10.30;99.90;;;;;;4982849;28;20104;-74
2023/05/24 05:00:46;;;;;;;8.97;1.90;;;10.30;99.90;;;;;;4986614;28;20065;-72
2023/05/24 05:03:12;;;;;;;13.15;2.33;;;10.30;99.90;;;;;;4982517;28;20116;-67
2023/05/24 05:05:38;;;;;;;11.98;2.78;;;10.30;99.90;;;;;;4975437;28;20058;-67
2023/05/24 05:08:06;;;;;;;16.00;2.33;;;10.40;99.90;;;;;;4978827;28;20550;-67
2023/05/24 05:10:32;;;;;;;11.57;2.25;;;10.40;99.90;;;;;;4987659;28;20453;-67
2023/05/24 05:12:57;;;;;;;13.00;2.57;;;10.40;99.90;;;;;;4981541;28;20045;-67
2023/05/24 05:15:23;;;;;;;13.37;2.13;;;10.50;99.90;;;;;;4978905;28;20050;-67
2023/05/24 05:17:49;;;;;;;8.63;2.35;;;10.60;99.90;;;;;;4982511;28;20528;-67
2023/05/24 05:20:15;;;;;;;7.05;2.33;;;10.60;99.90;;;;;;4978264;28;20046;-67
2023/05/24 05:22:48;;;;;;;10.50;2.30;;;10.60;99.90;;;;;;4974836;28;20073;-67
2023/05/24 05:25:13;;;;;;;14.95;3.10;;;10.70;99.90;;;;;;4979582;28;20042;-68
2023/05/24 05:27:39;;;;;;;13.52;2.42;;;10.70;99.90;;;;;;4979680;28;20075;-67
2023/05/24 05:30:05;;;;;;;12.53;2.77;;;10.80;99.90;;;;;;4978347;28;20042;-67
2023/05/24 05:32:35;;;;;;;11.30;2.85;;;10.80;99.90;;;;;;4979699;28;20041;-67
2023/05/24 05:35:00;;;;;;;9.82;2.55;;;10.90;99.90;;;;;;4978062;28;20404;-72
2023/05/24 05:37:26;;;;;;;14.87;2.03;;;10.90;99.90;;;;;;4982968;28;20042;-67
2023/05/24 05:39:51;;;;;;;15.50;3.13;;;10.90;99.90;;;;;;4977571;28;20068;-67
2023/05/24 05:42:17;;;;;;;9.50;2.57;;;11.00;99.90;;;;;;4976660;28;20180;-67
2023/05/24 05:44:43;;;;;;;16.60;3.77;;;11.00;99.90;;;;;;4983287;28;20038;-67
2023/05/24 05:47:08;;;;;;;10.87;3.07;;;11.00;99.90;;;;;;4983456;28;20284;-68
2023/05/24 05:49:37;;;;;;;14.63;2.20;;;11.10;99.90;;;;;;5000760;28;20162;-69
2023/05/24 05:52:04;;;;;;;12.77;2.80;;;11.10;99.90;;;;;;4986666;28;20069;-70
2023/05/24 05:54:33;;;;;;;10.15;3.22;;;11.10;99.90;;;;;;4986477;28;20074;-70
2023/05/24 05:56:58;;;;;;;13.02;4.13;;;11.20;99.90;;;;;;4978973;28;20065;-69
2023/05/24 05:59:24;;;;;;;12.32;2.50;;;11.20;99.90;;;;;;4999231;28;20439;-73
2023/05/24 06:01:50;;;;;;;9.80;2.20;;;11.20;99.90;;;;;;5001024;28;20476;-69
2023/05/24 06:04:16;;;;;;;12.07;2.77;;;11.30;99.90;;;;;;4985856;28;20050;-68
2023/05/24 06:06:44;;;;;;;15.52;2.70;;;11.30;99.90;;;;;;4985286;28;20279;-68
2023/05/24 06:09:10;;;;;;;11.25;3.20;;;11.30;99.90;;;;;;4988369;28;20038;-67
2023/05/24 06:11:35;;;;;;;15.80;2.70;;;11.40;99.90;;;;;;4983472;28;20053;-73
2023/05/24 06:14:01;;;;;;;14.20;4.00;;;11.40;99.90;;;;;;4985373;28;20555;-68
2023/05/24 06:16:27;;;;;;;13.98;3.10;;;11.50;99.90;;;;;;4982893;28;20038;-68
2023/05/24 06:18:53;;;;;;;12.07;2.60;;;11.60;99.90;;;;;;4984942;28;20464;-68
2023/05/24 06:21:20;;;;;;;8.93;2.42;;;11.60;99.90;;;;;;4985319;28;20093;-69
2023/05/24 06:23:48;;;;;;;15.65;2.88;;;11.70;99.90;;;;;;4986650;28;20050;-67
2023/05/24 06:26:14;;;;;;;13.10;2.25;;;11.70;99.90;;;;;;4985505;28;20545;-67
2023/05/24 06:28:39;;;;;;;10.05;2.80;;;11.70;99.90;;;;;;4984026;28;20039;-68
2023/05/24 06:31:05;;;;;;;11.75;2.28;;;11.70;99.90;;;;;;4983640;28;20181;-68
2023/05/24 06:33:31;;;;;;;12.37;2.63;;;11.70;99.90;;;;;;4984042;28;20041;-67
2023/05/24 06:36:00;;;;;;;13.77;2.03;;;11.70;99.90;;;;;;4982784;28;20467;-68
2023/05/24 06:38:26;;;;;;;11.07;2.80;;;11.80;99.90;;;;;;4985416;28;20937;-67
2023/05/24 06:40:54;;;;;;;7.72;1.85;;;11.80;99.90;;;;;;4986090;28;20050;-67
2023/05/24 06:43:20;;;;;;;16.57;2.67;;;11.90;99.90;;;;;;4999838;28;20448;-67
2023/05/24 06:45:46;;;;;;;13.27;2.57;;;11.90;99.90;;;;;;4991290;23;20051;-80
2023/05/24 06:48:51;;;;;;;9.88;3.08;;;11.90;99.90;;;;;;4961141;28;20133;-82
2023/05/24 06:51:36;;;;;;;11.60;2.80;;;11.90;99.90;;;;;;4944796;28;20171;-81
2023/05/24 06:54:05;;;;;;;11.10;2.20;;;11.90;99.90;;;;;;4957794;28;20534;-81
2023/05/24 06:56:31;;;;;;;14.18;2.85;;;12.10;99.90;;;;;;4960918;23;20142;-70
2023/05/24 06:58:58;;;;;;;12.52;2.22;;;12.10;99.90;;;;;;4970183;28;20054;-70
2023/05/24 07:01:24;;;;;;;16.20;2.80;;;12.10;99.90;;;;;;4979080;28;20046;-70
2023/05/24 07:03:49;;;;;;;14.00;2.63;;;12.10;99.90;;;;;;4978872;28;20046;-70
2023/05/24 07:06:16;;;;;;;9.37;2.47;;;12.20;99.90;;;;;;4974655;28;20206;-70
2023/05/24 07:08:41;;;;;;;12.73;3.22;;;12.30;99.90;;;;;;4973646;28;20542;-69
2023/05/24 07:11:08;;;;;;;6.45;2.65;;;12.30;99.90;;;;;;4974280;28;20050;-70
2023/05/24 07:13:33;;;;;;;12.35;2.42;;;12.40;99.90;;;;;;4977654;28;20060;-70
2023/05/24 07:15:59;;;;;;;6.50;2.50;;;12.50;99.90;;;;;;4963239;28;20443;-69
2023/05/24 07:18:25;;;;;;;11.87;2.07;;;12.60;99.90;;;;;;4973453;28;20092;-70
2023/05/24 07:20:50;;;;;;;14.50;2.33;;;12.70;99.90;;;;;;4975713;28;20054;-70
2023/05/24 07:23:16;;;;;;;11.63;2.23;;;12.70;99.90;;;;;;4984243;28;20166;-69
2023/05/24 07:25:42;;;;;;;7.17;1.93;;;12.90;99.90;;;;;;4979528;28;20042;-70
2023/05/24 07:28:09;;;;;;;6.25;1.75;;;12.90;99.90;;;;;;4980952;28;20566;-70
2023/05/24 07:30:37;;;;;;;8.93;1.80;;;12.90;99.90;;;;;;4974578;28;20396;-70
2023/05/24 07:33:03;;;;;;;14.25;2.17;;;12.90;99.90;;;;;;4966749;28;20046;-69
2023/05/24 07:35:29;;;;;;;13.82;2.90;;;12.90;99.90;;;;;;4977108;28;20399;-70
2023/05/24 07:37:55;;;;;;;;;;;12.90;99.90;;;;;;4975270;28;20060;-69
2023/05/24 07:40:21;;;;;;;9.25;1.67;;;12.90;99.90;;;;;;4981307;28;19925;-69
2023/05/24 07:42:47;;;;;;;10.60;1.80;;;12.90;99.90;;;;;;4978133;28;20051;-69
2023/05/24 07:45:13;;;;;;;6.82;1.90;;;12.90;99.90;;;;;;4973005;28;20038;-70
2023/05/24 07:47:39;;;;;;;5.38;1.80;;;12.90;99.90;;;;;;4973366;28;20076;-70
2023/05/24 07:50:05;;;;;;;7.82;2.00;;;13.00;99.90;;;;;;4964536;28;20038;-69
2023/05/24 07:52:31;;;;;;;8.98;1.95;;;13.00;99.90;;;;;;4974987;28;20046;-70
2023/05/24 07:54:57;;;;;;;14.80;2.70;;;13.00;99.90;;;;;;4979355;28;20466;-69
2023/05/24 07:57:22;;;;;;;12.63;2.60;;;13.00;99.90;;;;;;4958472;28;21032;-69
2023/05/24 07:59:48;;;;;;;10.45;1.85;;;13.00;99.90;;;;;;4976339;28;20295;-69
2023/05/24 08:02:15;;;;;;;9.25;2.00;;;13.00;99.90;;;;;;4978397;28;20050;-70
2023/05/24 08:04:42;;;;;;;8.35;1.85;;;13.00;99.90;;;;;;4973859;28;20089;-70
2023/05/24 08:07:08;;;;;;;6.70;2.13;;;13.10;99.90;;;;;;4972657;28;20408;-70
2023/05/24 08:09:35;;;;;;;10.63;2.30;;;13.10;99.90;;;;;;4978740;28;20043;-70
2023/05/24 08:12:07;;;;;;;6.47;2.28;;;13.10;99.90;;;;;;4978729;28;20070;-70
2023/05/24 08:14:32;;;;;;;8.38;2.28;;;13.20;99.90;;;;;;4975959;28;20038;-70
2023/05/24 08:17:01;;;;;;;6.25;1.92;;;13.20;99.90;;;;;;4971287;28;20041;-70
2023/05/24 08:19:27;;;;;;;8.57;1.90;;;13.20;99.90;;;;;;4975017;28;20046;-69
2023/05/24 08:21:56;;;;;;;5.53;1.73;;;13.30;99.90;;;;;;4972057;28;20535;-69
2023/05/24 08:24:22;;;;;;;6.60;1.58;;;13.30;99.90;;;;;;4983795;28;20046;-70
2023/05/24 08:26:50;;;;;;;;;;;13.30;99.90;;;;;;4976960;28;20117;-70
2023/05/24 08:29:16;;;;;;;8.60;1.98;;;13.40;99.90;;;;;;4981910;28;21017;-69
2023/05/24 08:31:42;;;;;;;10.50;2.80;;;13.50;99.90;;;;;;4976769;28;20053;-69
2023/05/24 08:34:07;;;;;;;7.13;2.20;;;13.50;99.90;;;;;;4976719;28;20074;-70
2023/05/24 08:36:33;;;;;;;8.50;2.40;;;13.50;99.90;;;;;;4974105;28;20043;-70
2023/05/24 08:38:59;;;;;;;9.80;1.57;;;13.50;99.90;;;;;;4975344;28;20291;-70
2023/05/24 08:41:26;;;;;;;14.05;2.60;;;13.40;99.90;;;;;;4976961;28;20042;-70
2023/05/24 08:43:56;;;;;;;9.05;2.20;;;13.40;99.90;;;;;;4971126;28;20125;-70
2023/05/24 08:46:22;;;;;;;8.63;2.00;;;13.40;99.90;;;;;;4979911;28;20042;-69
2023/05/24 08:48:50;;;;;;;8.85;2.58;;;13.40;99.90;;;;;;4977137;28;20046;-69
2023/05/24 08:51:16;;;;;;;10.82;2.78;;;13.40;99.90;;;;;;4988064;28;20130;-70
2023/05/24 08:53:48;;;;;;;11.32;2.45;;;13.40;99.90;;;;;;4971119;28;20416;-70
2023/05/24 08:56:18;;;;;;;9.35;3.72;;;13.40;99.90;;;;;;4983520;28;20053;-69
2023/05/24 08:58:44;;;;;;;7.20;1.92;;;13.40;99.90;;;;;;4979484;28;20117;-70
2023/05/24 09:01:15;;;;;;;8.85;2.38;;;13.40;99.90;;;;;;4978466;28;20046;-70
2023/05/24 09:03:42;;;;;;;10.98;2.42;;;13.40;99.90;;;;;;4979499;28;20053;-69
2023/05/24 09:06:09;;;;;;;7.70;2.17;;;13.40;99.90;;;;;;4978752;28;20054;-70
2023/05/24 09:08:37;;;;;;;10.00;2.88;;;13.40;99.90;;;;;;4976894;28;20046;-69
2023/05/24 09:11:04;;;;;;;6.75;2.17;;;13.40;99.90;;;;;;4980696;28;20043;-70
2023/05/24 09:13:30;;;;;;;10.57;2.20;;;13.50;99.90;;;;;;4977876;28;20073;-70
2023/05/24 09:15:58;;;;;;;8.98;2.25;;;13.50;99.90;;;;;;4973012;28;20057;-70
2023/05/24 09:18:23;;;;;;;8.50;2.40;;;13.40;99.90;;;;;;4971926;28;20488;-70
2023/05/24 09:20:50;;;;;;;4.80;1.73;;;13.40;99.90;;;;;;4975393;28;20054;-70
2023/05/24 09:23:16;;;;;;;9.82;1.95;;;13.40;99.90;;;;;;4976335;28;20322;-70
2023/05/24 09:25:43;;;;;;;;;;;13.30;99.90;;;;;;4979231;28;20419;-70
2023/05/24 09:28:11;;;;;;;5.75;1.67;;;13.30;99.90;;;;;;4975140;28;20004;-70
2023/05/24 09:30:37;;;;;;;8.02;2.05;;;13.30;99.90;;;;;;4976506;28;20046;-70
2023/05/24 09:33:04;;;;;;;10.00;1.77;;;13.30;99.90;;;;;;4976314;28;20381;-70
2023/05/24 09:35:30;;;;;;;7.07;1.48;;;13.30;99.90;;;;;;4974177;28;20073;-69
2023/05/24 09:37:59;;;;;;;11.38;2.65;;;13.30;99.90;;;;;;4977522;28;20570;-70
2023/05/24 09:40:25;;;;;;;8.13;1.88;;;13.30;99.90;;;;;;4974248;28;20042;-69
2023/05/24 09:43:08;;;;;;;7.28;2.50;;;13.40;99.90;;;;;;4978360;28;20053;-70
2023/05/24 09:45:47;;;;;;;8.20;1.83;;;13.50;99.90;;;;;;4975087;28;20073;-70
2023/05/24 09:48:17;;;;;;;4.68;1.90;;;13.50;99.90;;;;;;4978519;28;20416;-70
2023/05/24 09:50:46;;;;;;;6.65;1.67;;;13.60;99.90;;;;;;4979020;28;20520;-70
2023/05/24 09:53:12;;;;;;;9.07;2.15;;;13.70;99.90;;;;;;4972319;28;20424;-68
2023/05/24 09:55:37;;;;;;;6.85;1.70;;;13.70;99.90;;;;;;4979905;28;20047;-69
2023/05/24 09:58:07;;;;;;;7.20;2.17;;;13.80;99.90;;;;;;4980407;28;20519;-69
2023/05/24 10:00:39;;;;;;;9.35;1.88;;;13.80;99.90;;;;;;4974299;28;20552;-69
2023/05/24 10:03:07;;;;;;;11.35;2.03;;;13.90;99.90;;;;;;4977332;28;20047;-68
2023/05/24 10:05:34;;;;;;;10.18;2.30;;;14.10;99.90;;;;;;4976166;28;20046;-69
2023/05/24 10:08:01;;;;;;;7.05;1.83;;;14.20;99.90;;;;;;4973465;28;20110;-69
2023/05/24 10:10:28;;;;;;;10.43;2.17;;;14.30;99.90;;;;;;4971853;28;20050;-69
2023/05/24 10:12:55;;;;;;;7.43;1.45;;;14.40;99.90;;;;;;4971416;28;20519;-68
2023/05/24 10:15:22;;;;;;;7.20;2.25;;;14.50;99.90;;;;;;4981426;28;20046;-69
2023/05/24 10:17:47;;;;;;;7.57;2.70;;;14.60;99.90;;;;;;4975921;28;20129;-68
2023/05/24 10:20:14;;;;;;;10.50;2.33;;;14.60;99.90;;;;;;4976688;28;20149;-69
2023/05/24 10:22:42;;;;;;;;;;;14.70;99.90;;;;;;4959785;28;20698;-69
2023/05/24 10:25:15;;;;;;;7.35;2.25;;;14.70;99.90;;;;;;4969501;28;19972;-69
2023/05/24 10:27:42;;;;;;;6.78;2.25;;;14.80;99.90;;;;;;4973530;28;20125;-69
2023/05/24 10:30:11;;;;;;;6.65;1.73;;;14.80;99.90;;;;;;4977278;28;20118;-69
2023/05/24 10:32:38;;;;;;;7.55;2.22;;;14.80;99.90;;;;;;4976368;28;20058;-68
2023/05/24 10:35:05;;;;;;;;;;;14.80;99.90;;;;;;4967771;28;20053;-69
2023/05/24 10:37:31;;;;;;;7.28;1.65;;;14.80;99.90;;;;;;4979044;28;19962;-69
2023/05/24 10:39:58;;;;;;;5.88;1.83;;;14.80;99.90;;;;;;4973974;28;20061;-69
2023/05/24 10:42:25;;;;;;;7.43;1.63;;;14.90;99.90;;;;;;4980338;28;20052;-69
2023/05/24 10:44:51;;;;;;;6.53;1.58;;;15.00;99.90;;;;;;4982458;28;20073;-69
2023/05/24 10:47:19;;;;;;;6.20;2.13;;;15.00;99.90;;;;;;4973560;28;20624;-69
2023/05/24 10:49:56;;;;;;;9.55;2.42;;;15.00;99.90;;;;;;4974760;28;20054;-69
2023/05/24 10:52:32;;;;;;;;;;;15.00;99.90;;;;;;4980338;28;20050;-69
2023/05/24 10:55:03;;;;;;;8.85;1.67;;;15.00;99.90;;;;;;4975510;28;20359;-69
2023/05/24 10:57:30;;;;;;;5.03;1.60;;;15.00;99.90;;;;;;4980721;28;20038;-69
2023/05/24 10:59:57;;;;;;;5.57;1.77;;;15.20;99.90;;;;;;4975480;28;20468;-68
2023/05/24 11:02:27;;;;;;;11.27;2.00;;;15.20;99.90;;;;;;4980330;28;20133;-69
2023/05/24 11:04:55;;;;;;;8.27;1.98;;;15.30;99.90;;;;;;4979022;28;20074;-69
2023/05/24 11:07:20;;;;;;;6.57;1.50;;;15.40;99.90;;;;;;4981012;28;20038;-69
2023/05/24 11:09:55;;;;;;;9.73;2.08;;;15.50;99.90;;;;;;4978447;28;20050;-69
2023/05/24 11:12:21;;;;;;;8.57;2.17;;;15.60;99.90;;;;;;4974302;28;20508;-69
2023/05/24 11:14:50;;;;;;;7.40;1.55;;;15.60;99.90;;;;;;4981757;28;20050;-69
2023/05/24 11:17:16;;;;;;;5.55;2.08;;;15.60;99.90;;;;;;4974285;28;20045;-69
2023/05/24 11:19:54;;;;;;;7.75;2.28;;;15.70;99.90;;;;;;4978837;28;20047;-68
2023/05/24 11:22:21;;;;;;;5.70;1.88;;;15.70;99.90;;;;;;4973429;28;20073;-69
2023/05/24 11:24:47;;;;;;;5.90;1.98;;;15.80;99.90;;;;;;4985375;28;20049;-69
2023/05/24 11:27:13;;;;;;;7.80;2.03;;;15.80;99.90;;;;;;4974797;28;20038;-69
2023/05/24 11:29:43;;;;;;;6.25;1.63;;;15.80;99.90;;;;;;4973956;28;20042;-69
2023/05/24 11:32:14;;;;;;;6.00;2.17;;;15.90;99.90;;;;;;4981598;28;20053;-69
2023/05/24 11:34:39;;;;;;;7.00;1.90;;;15.90;99.90;;;;;;4982308;28;20046;-69
2023/05/24 11:37:06;;;;;;;5.90;1.88;;;15.90;99.90;;;;;;4977561;28;20069;-69
2023/05/24 11:39:34;;;;;;;4.68;1.50;;;15.90;99.90;;;;;;4972633;28;20069;-69
2023/05/24 11:42:01;;;;;;;6.05;1.73;;;15.90;99.90;;;;;;4977340;28;20566;-69
2023/05/24 11:44:30;;;;;;;6.70;1.67;;;15.90;99.90;;;;;;4977045;28;20153;-69
2023/05/24 11:47:00;;;;;;;4.68;1.80;;;15.90;99.90;;;;;;4980505;28;20606;-69
2023/05/24 11:49:26;;;;;;;6.75;1.98;;;15.80;99.90;;;;;;4990629;28;20042;-69
2023/05/24 11:51:56;;;;;;;5.57;1.33;;;15.80;99.90;;;;;;4986387;28;20046;-69
2023/05/24 11:54:27;;;;;;;8.45;2.22;;;15.90;99.90;;;;;;4974748;28;20118;-69
2023/05/24 11:56:53;;;;;;;6.50;1.95;;;16.00;99.90;;;;;;4980052;28;20046;-69
2023/05/24 11:59:26;;;;;;;8.02;1.95;;;16.00;99.90;;;;;;4978390;28;20042;-69
2023/05/24 12:02:01;;;;;;;7.88;1.73;;;15.90;99.90;;;;;;4982041;28;20057;-69
2023/05/24 12:04:28;;;;;;;9.07;1.65;;;15.80;99.90;;;;;;4979219;28;20038;-69
2023/05/24 12:06:54;;;;;;;10.77;1.83;;;15.80;99.90;;;;;;4981236;28;20082;-69
2023/05/24 12:09:20;;;;;;;5.75;1.73;;;15.70;99.90;;;;;;4977765;28;20047;-69
2023/05/24 12:11:47;;;;;;;7.63;1.75;;;15.80;99.90;;;;;;4968939;28;20042;-69
2023/05/24 12:14:13;;;;;;;8.18;1.60;;;15.90;99.90;;;;;;4974590;28;20057;-69
2023/05/24 12:16:41;;;;;;;5.93;1.50;;;16.20;99.90;;;;;;4983117;28;20099;-69
2023/05/24 12:19:07;;;;;;;8.20;1.65;;;16.30;99.90;;;;;;4975217;28;20053;-69
2023/05/24 12:21:34;;;;;;;6.80;2.65;;;16.30;99.90;;;;;;4959923;28;20047;-69
2023/05/24 12:24:13;;;;;;;7.10;2.10;;;16.30;99.90;;;;;;4976248;28;20046;-69
2023/05/24 12:26:47;;;;;;;5.25;1.83;;;16.30;99.90;;;;;;4973540;28;20038;-69
2023/05/24 12:29:13;;;;;;;5.47;1.65;;;16.20;99.90;;;;;;4965648;28;20406;-69
2023/05/24 12:31:47;;;;;;;7.25;1.58;;;16.30;99.90;;;;;;4998916;28;20054;-69
2023/05/24 12:34:19;;;;;;;5.47;1.42;;;16.50;99.90;;;;;;4992024;28;20493;-69
2023/05/24 12:36:46;;;;;;;6.57;1.55;;;16.60;99.90;;;;;;4973489;28;20407;-69
2023/05/24 12:39:21;;;;;;;5.82;1.65;;;16.70;99.90;;;;;;4973532;28;20911;-69
2023/05/24 12:41:51;;;;;;;3.78;1.05;;;16.60;99.90;;;;;;4980406;28;20046;-69
2023/05/24 12:44:27;;;;;;;3.17;1.10;;;16.50;99.90;;;;;;4977347;28;20053;-69
2023/05/24 12:46:54;;;;;;;4.88;1.08;;;16.50;99.90;;;;;;4976301;28;20035;-69
2023/05/24 12:49:20;;;;;;;2.38;1.40;;;16.30;99.90;;;;;;4977454;28;20037;-69
2023/05/24 12:51:46;;;;;;;3.55;1.20;;;16.20;99.90;;;;;;4973139;28;20055;-69